sensor_id;sensor_type;location;lat;lon;timestamp;temperature;humidity
2897;DHT22;1458;49.728;9.228;2022-10-17T00:01:34;14.40;99.90
2897;DHT22;1458;49.728;9.228;2022-10-17T00:04:02;14.50;99.90
2897;DHT22;1458;49.728;9.228;2022-10-17T00:06:33;14.40;99.90
2897;DHT22;1458;49.728;9.228;2022-10-17T00:09:01;14.40;99.90
2897;DHT22;1458;49.728;9.228;2022-10-17T00:11:29;14.30;99.90
2897;DHT22;1458;49.728;9.228;2022-10-17T00:13:58;14.30;99.90
2897;DHT22;1458;49.728;9.228;2022-10-17T00:16:27;14.20;99.90
2897;DHT22;1458;49.728;9.228;2022-10-17T00:18:58;14.20;99.90
2897;DHT22;1458;49.728;9.228;2022-10-17T00:21:27;14.20;99.90
2897;DHT22;1458;49.728;9.228;2022-10-17T00:23:58;14.20;99.90
2897;DHT22;1458;49.728;9.228;2022-10-17T00:26:29;14.20;99.90
2897;DHT22;1458;49.728;9.228;2022-10-17T00:28:57;14.10;99.90
2897;DHT22;1458;49.728;9.228;2022-10-17T00:31:25;14.10;99.90
2897;DHT22;1458;49.728;9.228;2022-10-17T00:33:53;14.10;99.90
2897;DHT22;1458;49.728;9.228;2022-10-17T00:36:24;14.10;99.90
2897;DHT22;1458;49.728;9.228;2022-10-17T00:38:54;14.10;99.90
2897;DHT22;1458;49.728;9.228;2022-10-17T00:41:28;14.10;99.90
2897;DHT22;1458;49.728;9.228;2022-10-17T00:44:00;14.10;99.90
2897;DHT22;1458;49.728;9.228;2022-10-17T00:46:30;14.10;99.90
2897;DHT22;1458;49.728;9.228;2022-10-17T00:49:07;14.10;99.90
2897;DHT22;1458;49.728;9.228;2022-10-17T00:51:39;14.20;99.90
2897;DHT22;1458;49.728;9.228;2022-10-17T00:54:10;14.20;99.90
2897;DHT22;1458;49.728;9.228;2022-10-17T00:56:41;14.20;99.90
2897;DHT22;1458;49.728;9.228;2022-10-17T00:59:11;14.20;99.90
2897;DHT22;1458;49.728;9.228;2022-10-17T01:01:42;14.20;99.90
2897;DHT22;1458;49.728;9.228;2022-10-17T01:04:17;14.10;99.90
2897;DHT22;1458;49.728;9.228;2022-10-17T01:06:48;14.20;99.90
2897;DHT22;1458;49.728;9.228;2022-10-17T01:09:18;14.20;99.90
2897;DHT22;1458;49.728;9.228;2022-10-17T01:11:49;14.20;99.90
2897;DHT22;1458;49.728;9.228;2022-10-17T01:14:30;14.40;99.90
2897;DHT22;1458;49.728;9.228;2022-10-17T01:17:10;14.40;99.90
2897;DHT22;1458;49.728;9.228;2022-10-17T01:20:20;14.40;99.90
2897;DHT22;1458;49.728;9.228;2022-10-17T01:23:19;14.30;99.90
2897;DHT22;1458;49.728;9.228;2022-10-17T01:26:04;14.30;99.90
2897;DHT22;1458;49.728;9.228;2022-10-17T01:29:07;14.30;99.90
2897;DHT22;1458;49.728;9.228;2022-10-17T01:31:54;14.20;99.90
2897;DHT22;1458;49.728;9.228;2022-10-17T01:34:31;14.10;99.90
2897;DHT22;1458;49.728;9.228;2022-10-17T01:37:07;14.20;99.90
2897;DHT22;1458;49.728;9.228;2022-10-17T01:39:45;14.20;99.90
2897;DHT22;1458;49.728;9.228;2022-10-17T01:42:16;14.20;99.90
2897;DHT22;1458;49.728;9.228;2022-10-17T01:44:51;14.30;99.90
2897;DHT22;1458;49.728;9.228;2022-10-17T01:47:27;14.40;99.90
2897;DHT22;1458;49.728;9.228;2022-10-17T01:49:59;14.30;99.90
2897;DHT22;1458;49.728;9.228;2022-10-17T01:52:35;14.40;99.90
2897;DHT22;1458;49.728;9.228;2022-10-17T01:55:09;14.30;99.90
2897;DHT22;1458;49.728;9.228;2022-10-17T01:57:41;14.30;99.90
2897;DHT22;1458;49.728;9.228;2022-10-17T02:00:13;14.40;99.90
2897;DHT22;1458;49.728;9.228;2022-10-17T02:02:46;14.30;99.90
2897;DHT22;1458;49.728;9.228;2022-10-17T02:05:16;14.20;99.90
2897;DHT22;1458;49.728;9.228;2022-10-17T02:07:47;14.00;99.90
2897;DHT22;1458;49.728;9.228;2022-10-17T02:10:20;13.90;99.90
2897;DHT22;1458;49.728;9.228;2022-10-17T02:13:03;13.90;99.90
2897;DHT22;1458;49.728;9.228;2022-10-17T02:15:58;13.90;99.90
2897;DHT22;1458;49.728;9.228;2022-10-17T02:18:51;13.80;99.90
2897;DHT22;1458;49.728;9.228;2022-10-17T02:21:40;13.80;99.90
2897;DHT22;1458;49.728;9.228;2022-10-17T02:24:17;13.70;99.90
2897;DHT22;1458;49.728;9.228;2022-10-17T02:26:52;13.70;99.90
2897;DHT22;1458;49.728;9.228;2022-10-17T02:29:27;13.70;99.90
2897;DHT22;1458;49.728;9.228;2022-10-17T02:32:03;13.60;99.90
2897;DHT22;1458;49.728;9.228;2022-10-17T02:34:38;13.60;99.90
2897;DHT22;1458;49.728;9.228;2022-10-17T02:37:09;13.60;99.90
2897;DHT22;1458;49.728;9.228;2022-10-17T02:39:39;13.70;99.90
2897;DHT22;1458;49.728;9.228;2022-10-17T02:42:13;13.70;99.90
2897;DHT22;1458;49.728;9.228;2022-10-17T02:44:43;13.80;99.90
2897;DHT22;1458;49.728;9.228;2022-10-17T02:47:24;13.80;99.90
2897;DHT22;1458;49.728;9.228;2022-10-17T02:49:58;13.90;99.90
2897;DHT22;1458;49.728;9.228;2022-10-17T02:52:33;13.80;99.90
2897;DHT22;1458;49.728;9.228;2022-10-17T02:55:15;13.80;99.90
2897;DHT22;1458;49.728;9.228;2022-10-17T02:57:50;13.80;99.90
2897;DHT22;1458;49.728;9.228;2022-10-17T03:00:21;13.80;99.90
2897;DHT22;1458;49.728;9.228;2022-10-17T03:02:51;13.70;99.90
2897;DHT22;1458;49.728;9.228;2022-10-17T03:05:28;13.80;99.90
2897;DHT22;1458;49.728;9.228;2022-10-17T03:07:56;13.80;99.90
2897;DHT22;1458;49.728;9.228;2022-10-17T03:10:25;13.80;99.90
2897;DHT22;1458;49.728;9.228;2022-10-17T03:12:53;13.70;99.90
2897;DHT22;1458;49.728;9.228;2022-10-17T03:15:23;13.80;99.90
2897;DHT22;1458;49.728;9.228;2022-10-17T03:17:50;13.70;99.90
2897;DHT22;1458;49.728;9.228;2022-10-17T03:20:18;13.70;99.90
2897;DHT22;1458;49.728;9.228;2022-10-17T03:22:48;13.70;99.90
2897;DHT22;1458;49.728;9.228;2022-10-17T03:25:15;13.80;99.90
2897;DHT22;1458;49.728;9.228;2022-10-17T03:27:46;13.80;99.90
2897;DHT22;1458;49.728;9.228;2022-10-17T03:30:15;13.80;99.90
2897;DHT22;1458;49.728;9.228;2022-10-17T03:32:43;13.60;99.90
2897;DHT22;1458;49.728;9.228;2022-10-17T03:35:11;13.60;99.90
2897;DHT22;1458;49.728;9.228;2022-10-17T03:37:39;13.50;99.90
2897;DHT22;1458;49.728;9.228;2022-10-17T03:40:09;13.60;99.90
2897;DHT22;1458;49.728;9.228;2022-10-17T03:42:38;13.60;99.90
2897;DHT22;1458;49.728;9.228;2022-10-17T03:45:06;13.70;99.90
2897;DHT22;1458;49.728;9.228;2022-10-17T03:47:37;13.70;99.90
2897;DHT22;1458;49.728;9.228;2022-10-17T03:50:05;13.60;99.90
2897;DHT22;1458;49.728;9.228;2022-10-17T03:52:35;13.70;99.90
2897;DHT22;1458;49.728;9.228;2022-10-17T03:55:05;13.60;99.90
2897;DHT22;1458;49.728;9.228;2022-10-17T03:57:37;13.70;99.90
2897;DHT22;1458;49.728;9.228;2022-10-17T04:00:07;13.80;99.90
2897;DHT22;1458;49.728;9.228;2022-10-17T04:02:43;13.80;99.90
2897;DHT22;1458;49.728;9.228;2022-10-17T04:05:17;13.80;99.90
2897;DHT22;1458;49.728;9.228;2022-10-17T04:07:47;13.80;99.90
2897;DHT22;1458;49.728;9.228;2022-10-17T04:10:22;13.80;99.90
2897;DHT22;1458;49.728;9.228;2022-10-17T04:12:54;13.70;99.90
2897;DHT22;1458;49.728;9.228;2022-10-17T04:15:24;13.60;99.90
2897;DHT22;1458;49.728;9.228;2022-10-17T04:17:52;13.60;99.90
2897;DHT22;1458;49.728;9.228;2022-10-17T04:20:25;13.80;99.90
2897;DHT22;1458;49.728;9.228;2022-10-17T04:22:53;13.80;99.90
2897;DHT22;1458;49.728;9.228;2022-10-17T04:25:20;13.70;99.90
2897;DHT22;1458;49.728;9.228;2022-10-17T04:27:51;13.60;99.90
2897;DHT22;1458;49.728;9.228;2022-10-17T04:30:19;13.70;99.90
2897;DHT22;1458;49.728;9.228;2022-10-17T04:32:47;13.70;99.90
2897;DHT22;1458;49.728;9.228;2022-10-17T04:35:20;13.70;99.90
2897;DHT22;1458;49.728;9.228;2022-10-17T04:37:55;13.70;99.90
2897;DHT22;1458;49.728;9.228;2022-10-17T04:40:24;13.70;99.90
2897;DHT22;1458;49.728;9.228;2022-10-17T04:42:53;13.70;99.90
2897;DHT22;1458;49.728;9.228;2022-10-17T04:45:30;13.70;99.90
2897;DHT22;1458;49.728;9.228;2022-10-17T04:48:01;13.70;99.90
2897;DHT22;1458;49.728;9.228;2022-10-17T04:50:28;13.60;99.90
2897;DHT22;1458;49.728;9.228;2022-10-17T04:53:17;13.60;99.90
2897;DHT22;1458;49.728;9.228;2022-10-17T04:55:45;13.70;99.90
2897;DHT22;1458;49.728;9.228;2022-10-17T04:58:14;13.70;99.90
2897;DHT22;1458;49.728;9.228;2022-10-17T05:00:42;13.60;99.90
2897;DHT22;1458;49.728;9.228;2022-10-17T05:03:21;13.60;99.90
2897;DHT22;1458;49.728;9.228;2022-10-17T05:05:49;13.50;99.90
2897;DHT22;1458;49.728;9.228;2022-10-17T05:08:17;13.50;99.90
2897;DHT22;1458;49.728;9.228;2022-10-17T05:10:44;13.50;99.90
2897;DHT22;1458;49.728;9.228;2022-10-17T05:13:14;13.50;99.90
2897;DHT22;1458;49.728;9.228;2022-10-17T05:15:43;13.50;99.90
2897;DHT22;1458;49.728;9.228;2022-10-17T05:18:11;13.40;99.90
2897;DHT22;1458;49.728;9.228;2022-10-17T05:20:41;13.50;99.90
2897;DHT22;1458;49.728;9.228;2022-10-17T05:23:09;13.50;99.90
2897;DHT22;1458;49.728;9.228;2022-10-17T05:25:39;13.50;99.90
2897;DHT22;1458;49.728;9.228;2022-10-17T05:28:07;13.40;99.90
2897;DHT22;1458;49.728;9.228;2022-10-17T05:30:36;13.40;99.90
2897;DHT22;1458;49.728;9.228;2022-10-17T05:33:06;13.40;99.90
2897;DHT22;1458;49.728;9.228;2022-10-17T05:35:35;13.30;99.90
2897;DHT22;1458;49.728;9.228;2022-10-17T05:38:03;13.40;99.90
2897;DHT22;1458;49.728;9.228;2022-10-17T05:40:33;13.40;99.90
2897;DHT22;1458;49.728;9.228;2022-10-17T05:43:01;13.40;99.90
2897;DHT22;1458;49.728;9.228;2022-10-17T05:45:29;13.50;99.90
2897;DHT22;1458;49.728;9.228;2022-10-17T05:47:59;13.40;99.90
2897;DHT22;1458;49.728;9.228;2022-10-17T05:50:27;13.40;99.90
2897;DHT22;1458;49.728;9.228;2022-10-17T05:53:09;13.40;99.90
2897;DHT22;1458;49.728;9.228;2022-10-17T05:55:42;13.40;99.90
2897;DHT22;1458;49.728;9.228;2022-10-17T05:58:10;13.40;99.90
2897;DHT22;1458;49.728;9.228;2022-10-17T06:00:43;13.40;99.90
2897;DHT22;1458;49.728;9.228;2022-10-17T06:03:12;13.40;99.90
2897;DHT22;1458;49.728;9.228;2022-10-17T06:05:39;13.30;99.90
2897;DHT22;1458;49.728;9.228;2022-10-17T06:08:07;13.30;99.90
2897;DHT22;1458;49.728;9.228;2022-10-17T06:10:35;13.30;99.90
2897;DHT22;1458;49.728;9.228;2022-10-17T06:13:16;13.40;99.90
2897;DHT22;1458;49.728;9.228;2022-10-17T06:15:48;13.20;99.90
2897;DHT22;1458;49.728;9.228;2022-10-17T06:18:16;13.30;99.90
2897;DHT22;1458;49.728;9.228;2022-10-17T06:20:44;13.10;99.90
2897;DHT22;1458;49.728;9.228;2022-10-17T06:23:11;13.20;99.90
2897;DHT22;1458;49.728;9.228;2022-10-17T06:25:51;13.20;99.90
2897;DHT22;1458;49.728;9.228;2022-10-17T06:28:18;13.10;99.90
2897;DHT22;1458;49.728;9.228;2022-10-17T06:30:49;13.20;99.90
2897;DHT22;1458;49.728;9.228;2022-10-17T06:33:17;13.10;99.90
2897;DHT22;1458;49.728;9.228;2022-10-17T06:35:50;13.10;99.90
2897;DHT22;1458;49.728;9.228;2022-10-17T06:38:18;13.20;99.90
2897;DHT22;1458;49.728;9.228;2022-10-17T06:40:49;13.10;99.90
2897;DHT22;1458;49.728;9.228;2022-10-17T06:43:19;13.10;99.90
2897;DHT22;1458;49.728;9.228;2022-10-17T06:46:05;13.10;99.90
2897;DHT22;1458;49.728;9.228;2022-10-17T06:48:39;13.20;99.90
2897;DHT22;1458;49.728;9.228;2022-10-17T06:51:21;13.20;99.90
2897;DHT22;1458;49.728;9.228;2022-10-17T06:53:53;13.40;99.90
2897;DHT22;1458;49.728;9.228;2022-10-17T06:56:29;13.30;99.90
2897;DHT22;1458;49.728;9.228;2022-10-17T06:59:19;13.40;99.90
2897;DHT22;1458;49.728;9.228;2022-10-17T07:01:52;13.40;99.90
2897;DHT22;1458;49.728;9.228;2022-10-17T07:04:21;13.50;99.90
2897;DHT22;1458;49.728;9.228;2022-10-17T07:06:48;13.60;99.90
2897;DHT22;1458;49.728;9.228;2022-10-17T07:09:19;13.50;99.90
2897;DHT22;1458;49.728;9.228;2022-10-17T07:11:47;13.60;99.90
2897;DHT22;1458;49.728;9.228;2022-10-17T07:14:17;13.60;99.90
2897;DHT22;1458;49.728;9.228;2022-10-17T07:16:47;13.60;99.90
2897;DHT22;1458;49.728;9.228;2022-10-17T07:19:22;13.80;99.90
2897;DHT22;1458;49.728;9.228;2022-10-17T07:21:50;13.80;99.90
2897;DHT22;1458;49.728;9.228;2022-10-17T07:24:18;13.80;99.90
2897;DHT22;1458;49.728;9.228;2022-10-17T07:26:50;13.80;99.90
2897;DHT22;1458;49.728;9.228;2022-10-17T07:29:18;13.90;99.90
2897;DHT22;1458;49.728;9.228;2022-10-17T07:32:06;13.90;99.90
2897;DHT22;1458;49.728;9.228;2022-10-17T07:34:36;13.90;99.90
2897;DHT22;1458;49.728;9.228;2022-10-17T07:37:05;14.10;99.90
2897;DHT22;1458;49.728;9.228;2022-10-17T07:39:35;14.20;99.90
2897;DHT22;1458;49.728;9.228;2022-10-17T07:42:05;14.40;99.90
2897;DHT22;1458;49.728;9.228;2022-10-17T07:44:34;14.30;99.90
2897;DHT22;1458;49.728;9.228;2022-10-17T07:47:04;14.40;99.90
2897;DHT22;1458;49.728;9.228;2022-10-17T07:49:33;14.50;99.90
2897;DHT22;1458;49.728;9.228;2022-10-17T07:52:09;14.70;99.90
2897;DHT22;1458;49.728;9.228;2022-10-17T07:54:37;14.70;99.90
2897;DHT22;1458;49.728;9.228;2022-10-17T07:57:05;14.70;99.90
2897;DHT22;1458;49.728;9.228;2022-10-17T07:59:32;14.90;99.90
2897;DHT22;1458;49.728;9.228;2022-10-17T08:02:00;15.00;99.90
2897;DHT22;1458;49.728;9.228;2022-10-17T08:04:31;15.00;99.90
2897;DHT22;1458;49.728;9.228;2022-10-17T08:06:59;14.80;99.90
2897;DHT22;1458;49.728;9.228;2022-10-17T08:09:28;14.70;99.90
2897;DHT22;1458;49.728;9.228;2022-10-17T08:11:55;14.80;99.90
2897;DHT22;1458;49.728;9.228;2022-10-17T08:14:23;15.00;99.90
2897;DHT22;1458;49.728;9.228;2022-10-17T08:16:52;15.00;99.90
2897;DHT22;1458;49.728;9.228;2022-10-17T08:19:20;15.10;99.90
2897;DHT22;1458;49.728;9.228;2022-10-17T08:21:48;15.10;99.90
2897;DHT22;1458;49.728;9.228;2022-10-17T08:24:16;15.30;99.90
2897;DHT22;1458;49.728;9.228;2022-10-17T08:26:45;15.30;99.90
2897;DHT22;1458;49.728;9.228;2022-10-17T08:29:14;15.10;99.90
2897;DHT22;1458;49.728;9.228;2022-10-17T08:31:42;15.20;99.90
2897;DHT22;1458;49.728;9.228;2022-10-17T08:34:09;15.40;99.90
2897;DHT22;1458;49.728;9.228;2022-10-17T08:36:37;15.40;99.90
2897;DHT22;1458;49.728;9.228;2022-10-17T08:39:04;15.30;99.90
2897;DHT22;1458;49.728;9.228;2022-10-17T08:41:42;15.40;99.90
2897;DHT22;1458;49.728;9.228;2022-10-17T08:44:25;15.50;99.90
2897;DHT22;1458;49.728;9.228;2022-10-17T08:47:06;15.50;99.90
2897;DHT22;1458;49.728;9.228;2022-10-17T08:49:40;15.70;99.90
2897;DHT22;1458;49.728;9.228;2022-10-17T08:52:16;15.80;99.90
2897;DHT22;1458;49.728;9.228;2022-10-17T08:54:47;15.80;99.90
2897;DHT22;1458;49.728;9.228;2022-10-17T09:01:11;16.30;99.90
2897;DHT22;1458;49.728;9.228;2022-10-17T09:03:57;16.50;99.90
2897;DHT22;1458;49.728;9.228;2022-10-17T09:06:33;16.40;99.90
2897;DHT22;1458;49.728;9.228;2022-10-17T09:09:13;16.50;99.90
2897;DHT22;1458;49.728;9.228;2022-10-17T09:11:55;16.50;99.90
2897;DHT22;1458;49.728;9.228;2022-10-17T09:14:51;16.80;99.90
2897;DHT22;1458;49.728;9.228;2022-10-17T09:17:34;16.80;99.90
2897;DHT22;1458;49.728;9.228;2022-10-17T09:20:10;16.90;99.90
2897;DHT22;1458;49.728;9.228;2022-10-17T09:22:43;17.10;99.90
2897;DHT22;1458;49.728;9.228;2022-10-17T09:25:15;17.20;99.90
2897;DHT22;1458;49.728;9.228;2022-10-17T09:27:46;17.30;99.90
2897;DHT22;1458;49.728;9.228;2022-10-17T09:30:34;17.40;99.90
2897;DHT22;1458;49.728;9.228;2022-10-17T09:33:13;17.50;99.90
2897;DHT22;1458;49.728;9.228;2022-10-17T09:35:42;17.60;99.90
2897;DHT22;1458;49.728;9.228;2022-10-17T09:38:15;17.60;99.90
2897;DHT22;1458;49.728;9.228;2022-10-17T09:40:48;17.70;99.90
2897;DHT22;1458;49.728;9.228;2022-10-17T09:43:19;17.70;99.90
2897;DHT22;1458;49.728;9.228;2022-10-17T09:45:57;17.80;99.90
2897;DHT22;1458;49.728;9.228;2022-10-17T09:48:32;17.90;99.90
2897;DHT22;1458;49.728;9.228;2022-10-17T09:51:04;18.00;99.90
2897;DHT22;1458;49.728;9.228;2022-10-17T09:53:34;18.00;99.90
2897;DHT22;1458;49.728;9.228;2022-10-17T09:56:07;18.10;99.90
2897;DHT22;1458;49.728;9.228;2022-10-17T09:58:41;18.30;99.90
2897;DHT22;1458;49.728;9.228;2022-10-17T10:01:22;18.30;99.90
2897;DHT22;1458;49.728;9.228;2022-10-17T10:04:10;18.40;99.90
2897;DHT22;1458;49.728;9.228;2022-10-17T10:06:39;18.50;99.90
2897;DHT22;1458;49.728;9.228;2022-10-17T10:09:21;18.60;99.90
2897;DHT22;1458;49.728;9.228;2022-10-17T10:11:54;18.50;99.90
2897;DHT22;1458;49.728;9.228;2022-10-17T10:14:23;18.50;99.90
2897;DHT22;1458;49.728;9.228;2022-10-17T10:16:55;18.40;99.90
2897;DHT22;1458;49.728;9.228;2022-10-17T10:19:28;18.50;99.90
2897;DHT22;1458;49.728;9.228;2022-10-17T10:21:58;18.60;99.90
2897;DHT22;1458;49.728;9.228;2022-10-17T10:24:28;18.70;99.90
2897;DHT22;1458;49.728;9.228;2022-10-17T10:26:58;18.90;99.90
2897;DHT22;1458;49.728;9.228;2022-10-17T10:29:30;18.90;99.90
2897;DHT22;1458;49.728;9.228;2022-10-17T10:32:07;19.00;99.90
2897;DHT22;1458;49.728;9.228;2022-10-17T10:34:43;19.10;99.90
2897;DHT22;1458;49.728;9.228;2022-10-17T10:37:17;19.20;99.90
2897;DHT22;1458;49.728;9.228;2022-10-17T10:39:47;19.20;99.90
2897;DHT22;1458;49.728;9.228;2022-10-17T10:42:27;19.30;99.90
2897;DHT22;1458;49.728;9.228;2022-10-17T10:45:02;19.30;99.90
2897;DHT22;1458;49.728;9.228;2022-10-17T10:47:38;19.40;99.90
2897;DHT22;1458;49.728;9.228;2022-10-17T10:50:22;19.40;99.90
2897;DHT22;1458;49.728;9.228;2022-10-17T10:53:07;19.40;99.90
2897;DHT22;1458;49.728;9.228;2022-10-17T10:55:57;19.50;99.90
2897;DHT22;1458;49.728;9.228;2022-10-17T10:58:36;19.70;99.90
2897;DHT22;1458;49.728;9.228;2022-10-17T11:01:13;19.90;99.90
2897;DHT22;1458;49.728;9.228;2022-10-17T11:03:55;19.80;99.90
2897;DHT22;1458;49.728;9.228;2022-10-17T11:06:33;19.80;99.90
2897;DHT22;1458;49.728;9.228;2022-10-17T11:09:13;19.80;99.90
2897;DHT22;1458;49.728;9.228;2022-10-17T11:11:58;19.80;99.90
2897;DHT22;1458;49.728;9.228;2022-10-17T11:14:38;19.90;99.90
2897;DHT22;1458;49.728;9.228;2022-10-17T11:17:18;19.90;99.90
2897;DHT22;1458;49.728;9.228;2022-10-17T11:19:58;20.00;99.90
2897;DHT22;1458;49.728;9.228;2022-10-17T11:22:37;20.10;99.90
2897;DHT22;1458;49.728;9.228;2022-10-17T11:25:15;20.10;99.90
2897;DHT22;1458;49.728;9.228;2022-10-17T11:27:48;20.20;99.90
2897;DHT22;1458;49.728;9.228;2022-10-17T11:30:16;20.10;99.90
2897;DHT22;1458;49.728;9.228;2022-10-17T11:32:45;20.20;99.90
2897;DHT22;1458;49.728;9.228;2022-10-17T11:35:19;20.40;99.90
2897;DHT22;1458;49.728;9.228;2022-10-17T11:38:01;20.60;99.90
2897;DHT22;1458;49.728;9.228;2022-10-17T11:40:44;20.60;99.90
2897;DHT22;1458;49.728;9.228;2022-10-17T11:43:19;20.60;99.90
2897;DHT22;1458;49.728;9.228;2022-10-17T11:45:58;20.60;99.90
2897;DHT22;1458;49.728;9.228;2022-10-17T11:48:31;20.80;99.90
2897;DHT22;1458;49.728;9.228;2022-10-17T11:51:07;20.70;99.90
2897;DHT22;1458;49.728;9.228;2022-10-17T11:53:45;20.80;99.90
2897;DHT22;1458;49.728;9.228;2022-10-17T11:56:20;20.80;99.90
2897;DHT22;1458;49.728;9.228;2022-10-17T11:58:56;20.70;99.90
2897;DHT22;1458;49.728;9.228;2022-10-17T12:01:34;21.00;99.90
2897;DHT22;1458;49.728;9.228;2022-10-17T12:04:23;20.90;99.90
2897;DHT22;1458;49.728;9.228;2022-10-17T12:07:04;21.00;99.90
2897;DHT22;1458;49.728;9.228;2022-10-17T12:09:42;21.10;99.90
2897;DHT22;1458;49.728;9.228;2022-10-17T12:12:24;21.20;99.90
2897;DHT22;1458;49.728;9.228;2022-10-17T12:14:53;21.30;99.90
2897;DHT22;1458;49.728;9.228;2022-10-17T12:17:27;21.40;99.90
2897;DHT22;1458;49.728;9.228;2022-10-17T12:20:23;21.40;99.90
2897;DHT22;1458;49.728;9.228;2022-10-17T12:22:53;21.70;99.30
2897;DHT22;1458;49.728;9.228;2022-10-17T12:25:25;22.00;95.10
2897;DHT22;1458;49.728;9.228;2022-10-17T12:28:11;22.30;92.50
2897;DHT22;1458;49.728;9.228;2022-10-17T12:30:59;22.40;91.40
2897;DHT22;1458;49.728;9.228;2022-10-17T12:33:32;22.60;91.10
2897;DHT22;1458;49.728;9.228;2022-10-17T12:45:48;22.70;82.60
2897;DHT22;1458;49.728;9.228;2022-10-17T12:52:14;22.70;83.80
2897;DHT22;1458;49.728;9.228;2022-10-17T12:54:46;22.80;80.40
2897;DHT22;1458;49.728;9.228;2022-10-17T12:57:20;22.80;80.10
2897;DHT22;1458;49.728;9.228;2022-10-17T12:59:51;22.90;78.80
2897;DHT22;1458;49.728;9.228;2022-10-17T13:02:22;22.90;79.90
2897;DHT22;1458;49.728;9.228;2022-10-17T13:05:02;22.90;78.30
2897;DHT22;1458;49.728;9.228;2022-10-17T13:07:34;22.90;77.50
2897;DHT22;1458;49.728;9.228;2022-10-17T13:10:02;22.80;78.50
2897;DHT22;1458;49.728;9.228;2022-10-17T13:12:33;22.80;78.70
2897;DHT22;1458;49.728;9.228;2022-10-17T13:15:06;22.80;79.80
2897;DHT22;1458;49.728;9.228;2022-10-17T13:17:34;22.80;78.50
2897;DHT22;1458;49.728;9.228;2022-10-17T13:20:02;22.90;78.30
2897;DHT22;1458;49.728;9.228;2022-10-17T13:22:31;23.00;76.90
2897;DHT22;1458;49.728;9.228;2022-10-17T13:25:07;22.90;76.70
2897;DHT22;1458;49.728;9.228;2022-10-17T13:27:36;22.80;77.80
2897;DHT22;1458;49.728;9.228;2022-10-17T13:30:27;22.70;77.40
2897;DHT22;1458;49.728;9.228;2022-10-17T13:32:56;22.60;79.90
2897;DHT22;1458;49.728;9.228;2022-10-17T13:35:27;22.50;80.60
2897;DHT22;1458;49.728;9.228;2022-10-17T13:37:56;22.60;81.00
2897;DHT22;1458;49.728;9.228;2022-10-17T13:40:27;22.70;79.60
2897;DHT22;1458;49.728;9.228;2022-10-17T13:42:57;22.70;79.70
2897;DHT22;1458;49.728;9.228;2022-10-17T13:45:30;22.60;80.30
2897;DHT22;1458;49.728;9.228;2022-10-17T13:48:01;22.60;81.60
2897;DHT22;1458;49.728;9.228;2022-10-17T13:50:33;22.70;80.00
2897;DHT22;1458;49.728;9.228;2022-10-17T13:53:07;22.80;80.50
2897;DHT22;1458;49.728;9.228;2022-10-17T13:55:58;22.70;81.50
2897;DHT22;1458;49.728;9.228;2022-10-17T13:58:31;22.60;81.50
2897;DHT22;1458;49.728;9.228;2022-10-17T14:01:10;22.70;81.10
2897;DHT22;1458;49.728;9.228;2022-10-17T14:03:40;22.60;82.10
2897;DHT22;1458;49.728;9.228;2022-10-17T14:06:19;22.70;81.20
2897;DHT22;1458;49.728;9.228;2022-10-17T14:08:53;22.60;81.00
2897;DHT22;1458;49.728;9.228;2022-10-17T14:11:29;22.50;81.80
2897;DHT22;1458;49.728;9.228;2022-10-17T14:13:59;22.50;81.70
2897;DHT22;1458;49.728;9.228;2022-10-17T14:16:37;22.40;82.60
2897;DHT22;1458;49.728;9.228;2022-10-17T14:19:17;22.40;82.70
2897;DHT22;1458;49.728;9.228;2022-10-17T14:21:52;22.40;83.70
2897;DHT22;1458;49.728;9.228;2022-10-17T14:24:28;22.40;83.60
2897;DHT22;1458;49.728;9.228;2022-10-17T14:26:59;22.50;83.80
2897;DHT22;1458;49.728;9.228;2022-10-17T14:29:28;22.50;84.00
2897;DHT22;1458;49.728;9.228;2022-10-17T14:32:04;22.40;84.50
2897;DHT22;1458;49.728;9.228;2022-10-17T14:34:35;22.40;84.70
2897;DHT22;1458;49.728;9.228;2022-10-17T14:37:08;22.40;83.30
2897;DHT22;1458;49.728;9.228;2022-10-17T14:39:38;22.30;85.20
2897;DHT22;1458;49.728;9.228;2022-10-17T14:42:05;22.30;85.80
2897;DHT22;1458;49.728;9.228;2022-10-17T14:44:34;22.30;85.70
2897;DHT22;1458;49.728;9.228;2022-10-17T14:47:05;22.30;84.70
2897;DHT22;1458;49.728;9.228;2022-10-17T14:49:36;22.20;85.90
2897;DHT22;1458;49.728;9.228;2022-10-17T14:52:26;22.20;85.90
2897;DHT22;1458;49.728;9.228;2022-10-17T14:54:57;22.20;87.00
2897;DHT22;1458;49.728;9.228;2022-10-17T14:57:33;22.10;88.00
2897;DHT22;1458;49.728;9.228;2022-10-17T15:00:12;22.00;88.30
2897;DHT22;1458;49.728;9.228;2022-10-17T15:02:43;22.00;87.70
2897;DHT22;1458;49.728;9.228;2022-10-17T15:05:11;22.00;87.60
2897;DHT22;1458;49.728;9.228;2022-10-17T15:07:39;22.00;88.70
2897;DHT22;1458;49.728;9.228;2022-10-17T15:10:23;21.90;89.40
2897;DHT22;1458;49.728;9.228;2022-10-17T15:12:53;21.70;89.30
2897;DHT22;1458;49.728;9.228;2022-10-17T15:15:20;21.60;90.10
2897;DHT22;1458;49.728;9.228;2022-10-17T15:17:49;21.60;90.60
2897;DHT22;1458;49.728;9.228;2022-10-17T15:20:17;21.40;91.20
2897;DHT22;1458;49.728;9.228;2022-10-17T15:22:45;21.30;91.90
2897;DHT22;1458;49.728;9.228;2022-10-17T15:25:12;21.20;92.50
2897;DHT22;1458;49.728;9.228;2022-10-17T15:27:40;21.10;92.80
2897;DHT22;1458;49.728;9.228;2022-10-17T15:30:16;21.00;93.10
2897;DHT22;1458;49.728;9.228;2022-10-17T15:32:46;21.10;93.20
2897;DHT22;1458;49.728;9.228;2022-10-17T15:35:16;21.20;93.10
2897;DHT22;1458;49.728;9.228;2022-10-17T15:37:44;21.20;95.30
2897;DHT22;1458;49.728;9.228;2022-10-17T15:40:14;21.10;97.70
2897;DHT22;1458;49.728;9.228;2022-10-17T15:42:44;20.60;99.30
2897;DHT22;1458;49.728;9.228;2022-10-17T15:45:12;20.30;99.90
2897;DHT22;1458;49.728;9.228;2022-10-17T15:47:41;20.20;99.90
2897;DHT22;1458;49.728;9.228;2022-10-17T15:50:13;20.00;99.90
2897;DHT22;1458;49.728;9.228;2022-10-17T15:52:41;19.80;99.90
2897;DHT22;1458;49.728;9.228;2022-10-17T15:55:09;19.70;99.90
2897;DHT22;1458;49.728;9.228;2022-10-17T15:57:39;19.60;99.90
2897;DHT22;1458;49.728;9.228;2022-10-17T16:00:14;19.40;99.90
2897;DHT22;1458;49.728;9.228;2022-10-17T16:02:42;19.20;99.90
2897;DHT22;1458;49.728;9.228;2022-10-17T16:05:15;19.10;99.90
2897;DHT22;1458;49.728;9.228;2022-10-17T16:07:48;19.00;99.90
2897;DHT22;1458;49.728;9.228;2022-10-17T16:10:16;18.90;99.90
2897;DHT22;1458;49.728;9.228;2022-10-17T16:12:44;18.80;99.90
2897;DHT22;1458;49.728;9.228;2022-10-17T16:15:17;18.60;99.90
2897;DHT22;1458;49.728;9.228;2022-10-17T16:17:50;18.60;99.90
2897;DHT22;1458;49.728;9.228;2022-10-17T16:20:20;18.60;99.90
2897;DHT22;1458;49.728;9.228;2022-10-17T16:22:49;18.50;99.90
2897;DHT22;1458;49.728;9.228;2022-10-17T16:25:19;18.30;99.90
2897;DHT22;1458;49.728;9.228;2022-10-17T16:27:49;18.20;99.90
2897;DHT22;1458;49.728;9.228;2022-10-17T16:30:18;18.10;99.90
2897;DHT22;1458;49.728;9.228;2022-10-17T16:32:46;18.10;99.90
2897;DHT22;1458;49.728;9.228;2022-10-17T16:35:17;18.00;99.90
2897;DHT22;1458;49.728;9.228;2022-10-17T16:37:47;17.90;99.90
2897;DHT22;1458;49.728;9.228;2022-10-17T16:40:15;17.90;99.90
2897;DHT22;1458;49.728;9.228;2022-10-17T16:42:43;17.70;99.90
2897;DHT22;1458;49.728;9.228;2022-10-17T16:45:15;17.70;99.90
2897;DHT22;1458;49.728;9.228;2022-10-17T16:47:44;17.60;99.90
2897;DHT22;1458;49.728;9.228;2022-10-17T16:50:11;17.50;99.90
2897;DHT22;1458;49.728;9.228;2022-10-17T16:52:41;17.40;99.90
2897;DHT22;1458;49.728;9.228;2022-10-17T16:55:09;17.30;99.90
2897;DHT22;1458;49.728;9.228;2022-10-17T16:57:36;17.10;99.90